ESNQ Airport Information

Runway Information
Runway 03 Length 8209 ft width 148 ft
Elevation 1508 ft Threshold ft Heading 34
Runway 21 Length 8209 ft Width 148 ft
Elevation 1432 ft Threshold ft Heading 214
Airport Frequencies
Type TWR Name TWR Frequency 130.15 MHZ
Airport Navaids
Type VOR-DME Name Kiruna Frequency 115200 KHZ
Type NDB Name Kiruna Frequency 360 KHZ
Airport Weather Information & NOTAM
ADDS - METARS form results

(2213 UTC 09 August 2022)
Data provider http://aviationweather.gov/metar/data/
 
METAR text: ESNQ 092150Z AUTO 00000KT 9999 OVC038/// 10/09 Q1017
Conditions at: ESNQ (KIRUNA AIRPORT , SE) observed 2150 UTC 09 August 2022
Temperature: 10.0°C (50°F)
Dewpoint: 9.0°C (48°F) [RH = 93%]
Pressure (altimeter): 30.03 inches Hg (1017.0 mb)
Winds: calm
Visibility: 6 or more miles (10+ km)
Ceiling: 3800 feet AGL
Clouds: overcast cloud deck at 3800 feet AGL
Weather: no significant weather observed at this time

METAR text: ESNQ 092120Z AUTO VRB02KT 9999 FEW013/// SCT022/// OVC040/// 10/09 Q1017
Conditions at: ESNQ (KIRUNA AIRPORT , SE) observed 2120 UTC 09 August 2022
Temperature: 10.0°C (50°F)
Dewpoint: 9.0°C (48°F) [RH = 93%]
Pressure (altimeter): 30.03 inches Hg (1017.0 mb)
Winds: variable direction winds at 2 MPH (2 knots; 1.0 m/s)
Visibility: 6 or more miles (10+ km)
Ceiling: 4000 feet AGL
Clouds: few clouds at 1300 feet AGL
scattered clouds at 2200 feet AGL
overcast cloud deck at 4000 feet AGL
Weather: no significant weather observed at this time

Forecast for: ESNQ (KIRUNA AIRPORT , SE)
Text: TAF ESNQ 091430Z 0915/0917 23009KT CAVOK
Forecast period: 1500 to 1700 UTC 09 August 2022
Forecast type: FROM: standard forecast or significant change
Winds: from the SW (230 degrees) at 10 MPH (9 knots; 4.6 m/s)
Visibility: 6 or more miles (10+ km)
Ceiling: unknown
Clouds: missing
Weather: NSW  (no significant weather)